createdAt,value
2023-02-04T00:00:46.271Z,1.30
2023-02-04T00:03:49.279Z,1.57
2023-02-04T00:06:51.961Z,0.85
2023-02-04T00:09:55.077Z,0.88
2023-02-04T00:12:57.779Z,1.40
2023-02-04T00:16:00.932Z,0.60
2023-02-04T00:19:03.653Z,1.10
2023-02-04T00:22:08.074Z,0.90
2023-02-04T00:25:10.800Z,1.30
2023-02-04T00:28:13.802Z,1.10
2023-02-04T00:31:16.641Z,1.20
2023-02-04T00:34:19.807Z,0.83
2023-02-04T00:37:22.720Z,0.80
2023-02-04T00:40:25.767Z,0.70
2023-02-04T00:43:28.478Z,1.12
2023-02-04T00:46:31.488Z,1.17
2023-02-04T00:49:34.980Z,0.73
2023-02-04T00:52:38.039Z,1.10
2023-02-04T00:55:40.657Z,0.80
2023-02-04T00:58:43.651Z,1.00
2023-02-04T01:01:46.466Z,1.20
2023-02-04T01:04:50.646Z,1.50
2023-02-04T01:07:53.501Z,1.00
2023-02-04T01:10:56.511Z,0.95
2023-02-04T01:13:59.611Z,1.37
2023-02-04T01:17:02.671Z,0.80
2023-02-04T01:20:05.538Z,0.80
2023-02-04T01:23:09.333Z,1.60
2023-02-04T01:26:11.993Z,1.12
2023-02-04T01:29:15.066Z,1.25
2023-02-04T01:32:17.697Z,1.30
2023-02-04T01:35:21.345Z,1.30
2023-02-04T01:38:24.188Z,1.10
2023-02-04T01:41:28.222Z,0.77
2023-02-04T01:44:31.552Z,0.82
2023-02-04T01:47:35.432Z,1.30
2023-02-04T01:50:38.600Z,1.30
2023-02-04T01:53:42.360Z,1.40
2023-02-04T01:56:47.354Z,1.40
2023-02-04T01:59:54.923Z,0.98
2023-02-04T02:02:59.379Z,0.95
2023-02-04T02:06:02.477Z,0.83
2023-02-04T02:09:05.733Z,1.30
2023-02-04T02:12:08.833Z,0.60
2023-02-04T02:15:12.981Z,0.80
2023-02-04T02:18:16.289Z,0.80
2023-02-04T02:21:49.556Z,1.07
2023-02-04T02:24:52.511Z,0.73
2023-02-04T02:27:57.402Z,0.98
2023-02-04T02:31:01.057Z,1.08
2023-02-04T02:34:03.868Z,1.08
2023-02-04T02:37:09.297Z,0.80
2023-02-04T02:40:12.684Z,1.00
2023-02-04T02:43:20.280Z,0.93
2023-02-04T02:46:23.089Z,0.90
2023-02-04T02:49:26.678Z,1.15
2023-02-04T02:52:29.399Z,1.17
2023-02-04T02:55:32.683Z,0.70
2023-02-04T02:58:39.095Z,1.17
2023-02-04T03:01:43.620Z,0.90
2023-02-04T03:04:54.437Z,1.02
2023-02-04T03:07:58.831Z,0.83
2023-02-04T03:11:01.787Z,0.80
2023-02-04T03:14:05.600Z,0.90
2023-02-04T03:17:10.856Z,0.90
2023-02-04T03:20:15.704Z,1.05
2023-02-04T03:23:20.416Z,1.13
2023-02-04T03:26:25.164Z,1.00
2023-02-04T03:29:29.739Z,1.62
2023-02-04T03:32:32.985Z,1.20
2023-02-04T03:35:35.775Z,0.75
2023-02-04T03:38:39.087Z,1.33
2023-02-04T03:41:41.740Z,1.27
2023-02-04T03:44:44.776Z,1.60
2023-02-04T03:47:47.517Z,0.65
2023-02-04T03:50:50.549Z,0.50
2023-02-04T03:53:53.246Z,0.80
2023-02-04T03:56:56.269Z,1.10
2023-02-04T03:59:58.937Z,1.60
2023-02-04T04:03:01.928Z,0.77
2023-02-04T04:06:06.563Z,0.77
2023-02-04T04:09:09.241Z,0.90
2023-02-04T04:12:12.263Z,1.00
2023-02-04T04:15:14.902Z,0.55
2023-02-04T04:18:18.080Z,0.98
2023-02-04T04:21:20.694Z,0.77
2023-02-04T04:24:23.733Z,0.93
2023-02-04T04:27:26.427Z,0.80
2023-02-04T04:30:29.725Z,0.65
2023-02-04T04:33:36.982Z,1.15
2023-02-04T04:36:40.031Z,0.80
2023-02-04T04:39:42.767Z,1.00
2023-02-04T04:42:45.768Z,0.80
2023-02-04T04:45:48.477Z,0.98
2023-02-04T04:48:51.520Z,0.80
2023-02-04T04:51:54.128Z,0.55
2023-02-04T04:54:57.184Z,0.90
2023-02-04T04:57:59.836Z,0.73
2023-02-04T05:01:02.945Z,0.50
2023-02-04T05:04:05.735Z,0.68
2023-02-04T05:07:08.838Z,0.60
2023-02-04T05:10:11.546Z,0.60
2023-02-04T05:13:14.956Z,0.50
2023-02-04T05:16:18.508Z,0.30
2023-02-04T05:19:21.568Z,0.20
2023-02-04T05:22:24.217Z,0.52
2023-02-04T05:25:28.829Z,0.30
2023-02-04T05:28:31.560Z,0.20
2023-02-04T05:31:34.971Z,0.20
2023-02-04T05:34:39.728Z,0.30
2023-02-04T05:37:42.986Z,0.43
2023-02-04T05:40:45.626Z,0.20
2023-02-04T05:43:48.670Z,0.27
2023-02-04T05:46:51.363Z,0.20
2023-02-04T05:49:54.451Z,0.20
2023-02-04T05:52:57.243Z,0.30
2023-02-04T05:56:00.240Z,0.70
2023-02-04T05:59:02.975Z,0.20
2023-02-04T06:02:06.121Z,0.30
2023-02-04T06:05:09.406Z,0.28
2023-02-04T06:08:12.042Z,0.10
2023-02-04T06:11:15.109Z,0.20
2023-02-04T06:14:17.777Z,0.20
2023-02-04T06:17:20.895Z,0.20
2023-02-04T06:20:23.584Z,0.20
2023-02-04T06:23:26.671Z,0.20
2023-02-04T06:26:29.494Z,0.20
2023-02-04T06:29:32.521Z,0.30
2023-02-04T06:32:35.238Z,0.40
2023-02-04T06:35:38.443Z,0.40
2023-02-04T06:38:41.170Z,1.00
2023-02-04T06:41:44.217Z,0.77
2023-02-04T06:44:47.374Z,1.40
2023-02-04T06:47:50.708Z,1.25
2023-02-04T06:50:53.451Z,1.62
2023-02-04T06:53:56.605Z,1.52
2023-02-04T06:57:06.751Z,2.20
2023-02-04T07:00:11.851Z,1.97
2023-02-04T07:03:14.547Z,1.80
2023-02-04T07:06:17.588Z,2.17
2023-02-04T07:09:20.381Z,2.40
2023-02-04T07:12:23.470Z,2.93
2023-02-04T07:15:26.213Z,2.53
2023-02-04T07:18:29.318Z,2.97
2023-02-04T07:21:31.994Z,3.67
2023-02-04T07:24:35.042Z,2.80
2023-02-04T07:27:37.775Z,3.57
2023-02-04T07:30:40.842Z,2.50
2023-02-04T07:33:43.600Z,3.10
2023-02-04T07:36:46.883Z,3.47
2023-02-04T07:39:49.703Z,3.30
2023-02-04T07:42:52.710Z,2.50
2023-02-04T07:45:57.345Z,3.62
2023-02-04T07:49:00.455Z,3.92
2023-02-04T07:52:03.241Z,3.35
2023-02-04T07:55:07.393Z,3.75
2023-02-04T07:58:10.159Z,2.90
2023-02-04T08:01:13.205Z,3.25
2023-02-04T08:04:16.268Z,4.15
2023-02-04T08:07:19.282Z,3.10
2023-02-04T08:10:22.427Z,2.55
2023-02-04T08:13:25.677Z,2.80
2023-02-04T08:16:28.773Z,2.27
2023-02-04T08:19:31.449Z,2.45
2023-02-04T08:22:35.390Z,3.33
2023-02-04T08:25:38.050Z,2.53
2023-02-04T08:28:41.113Z,2.57
2023-02-04T08:31:43.919Z,2.40
2023-02-04T08:34:48.879Z,2.97
2023-02-04T08:37:51.620Z,2.78
2023-02-04T08:40:54.752Z,2.90
2023-02-04T08:43:57.425Z,2.40
2023-02-04T08:47:00.429Z,2.00
2023-02-04T08:50:03.697Z,2.03
2023-02-04T08:53:06.783Z,2.75
2023-02-04T08:56:10.559Z,2.47
2023-02-04T08:59:13.666Z,1.90
2023-02-04T09:02:16.412Z,2.10
2023-02-04T09:05:19.484Z,1.58
2023-02-04T09:08:22.166Z,1.60
2023-02-04T09:11:25.550Z,1.90
2023-02-04T09:14:28.316Z,2.10
2023-02-04T09:17:31.374Z,1.97
2023-02-04T09:20:36.281Z,1.90
2023-02-04T09:23:39.330Z,2.05
2023-02-04T09:26:42.018Z,0.95
2023-02-04T09:29:45.029Z,1.77
2023-02-04T09:32:47.610Z,1.90
2023-02-04T09:35:50.670Z,1.75
2023-02-04T09:38:53.375Z,2.33
2023-02-04T09:41:56.700Z,2.00
2023-02-04T09:45:01.651Z,2.10
2023-02-04T09:48:07.156Z,1.47
2023-02-04T09:51:15.735Z,1.58
2023-02-04T09:54:21.274Z,2.25
2023-02-04T09:57:23.989Z,1.48
2023-02-04T10:00:30.254Z,2.50
2023-02-04T10:03:35.603Z,1.50
2023-02-04T10:06:38.947Z,1.20
2023-02-04T10:09:41.968Z,1.37
2023-02-04T10:12:46.569Z,1.45
2023-02-04T10:15:51.081Z,1.23
2023-02-04T10:18:53.849Z,1.80
2023-02-04T10:21:57.802Z,2.05
2023-02-04T10:25:00.434Z,1.58
2023-02-04T10:28:03.852Z,1.53
2023-02-04T10:31:10.794Z,1.50
2023-02-04T10:34:17.508Z,1.33
2023-02-04T10:37:22.720Z,1.75
2023-02-04T10:40:34.264Z,1.60
2023-02-04T10:43:37.125Z,2.23
2023-02-04T10:46:40.669Z,2.60
2023-02-04T10:49:56.265Z,1.42
2023-02-04T10:53:20.820Z,1.80
2023-02-04T10:56:23.679Z,1.37
2023-02-04T10:59:28.119Z,1.83
2023-02-04T11:02:33.793Z,1.63
2023-02-04T11:05:37.186Z,1.42
2023-02-04T11:08:40.712Z,2.00
2023-02-04T11:11:48.828Z,1.98
2023-02-04T11:14:58.803Z,2.20
2023-02-04T11:18:08.010Z,1.77
2023-02-04T11:21:21.857Z,2.05
2023-02-04T11:24:26.082Z,1.92
2023-02-04T11:27:40.534Z,1.98
2023-02-04T11:30:43.700Z,2.77
2023-02-04T11:33:47.817Z,1.80
2023-02-04T11:37:08.341Z,2.40
2023-02-04T11:40:25.517Z,2.20
2023-02-04T11:43:30.595Z,2.75
2023-02-04T11:46:33.457Z,2.20
2023-02-04T11:49:37.210Z,2.60
2023-02-04T11:52:40.250Z,2.50
2023-02-04T11:55:47.414Z,2.65
2023-02-04T11:58:51.101Z,2.22
2023-02-04T12:02:05.906Z,3.10
2023-02-04T12:05:12.388Z,2.80
2023-02-04T12:08:24.200Z,2.62
2023-02-04T12:11:32.902Z,2.05
2023-02-04T12:14:37.971Z,3.03
2023-02-04T12:17:44.460Z,2.93
2023-02-04T12:20:47.257Z,3.20
2023-02-04T12:23:50.233Z,2.60
2023-02-04T12:26:52.928Z,2.60
2023-02-04T12:29:55.915Z,2.30
2023-02-04T12:32:58.681Z,2.53
2023-02-04T12:36:01.733Z,2.63
2023-02-04T12:39:04.584Z,2.60
2023-02-04T12:42:07.620Z,2.70
2023-02-04T12:45:14.443Z,3.03
2023-02-04T12:48:17.596Z,2.50
2023-02-04T12:51:21.371Z,3.13
2023-02-04T12:54:24.668Z,2.28
2023-02-04T12:57:27.570Z,2.25
2023-02-04T13:00:30.755Z,2.10
2023-02-04T13:03:33.731Z,2.17
2023-02-04T13:06:36.883Z,2.03
2023-02-04T13:09:39.540Z,2.28
2023-02-04T13:12:43.126Z,2.62
2023-02-04T13:15:46.223Z,2.22
2023-02-04T13:18:49.312Z,1.77
2023-02-04T13:21:52.080Z,2.20
2023-02-04T13:24:55.192Z,2.05
2023-02-04T13:27:58.126Z,3.08
2023-02-04T13:31:04.092Z,2.75
2023-02-04T13:34:08.130Z,4.27
2023-02-04T13:37:11.484Z,2.10
2023-02-04T13:40:14.361Z,2.30
2023-02-04T13:43:17.486Z,2.95
2023-02-04T13:46:21.678Z,4.85
2023-02-04T13:49:25.156Z,2.20
2023-02-04T13:52:27.849Z,2.40
2023-02-04T13:55:31.416Z,2.72
2023-02-04T13:58:34.477Z,1.58
2023-02-04T14:01:37.508Z,2.28
2023-02-04T14:04:42.562Z,3.00
2023-02-04T14:07:45.361Z,2.50
2023-02-04T14:10:48.679Z,2.22
2023-02-04T14:13:51.451Z,2.55
2023-02-04T14:16:54.533Z,2.80
2023-02-04T14:19:57.426Z,2.27
2023-02-04T14:23:00.786Z,2.70
2023-02-04T14:26:03.657Z,2.45
2023-02-04T14:29:07.559Z,2.42
2023-02-04T14:32:10.364Z,1.75
2023-02-04T14:35:15.658Z,2.60
2023-02-04T14:38:18.766Z,2.80
2023-02-04T14:41:22.499Z,1.45
2023-02-04T14:44:25.517Z,2.10
2023-02-04T14:47:28.971Z,1.35
2023-02-04T14:50:32.510Z,1.20
2023-02-04T14:53:36.430Z,3.50
2023-02-04T14:56:39.345Z,2.22
2023-02-04T14:59:43.524Z,1.45
2023-02-04T15:02:47.792Z,2.67
2023-02-04T15:05:50.871Z,2.30
2023-02-04T15:08:53.622Z,2.50
2023-02-04T15:11:57.055Z,2.65
2023-02-04T15:14:59.880Z,1.30
2023-02-04T15:18:03.083Z,2.10
2023-02-04T15:21:06.033Z,0.97
2023-02-04T15:24:09.565Z,0.93
2023-02-04T15:27:12.310Z,1.40
2023-02-04T15:30:15.904Z,1.25
2023-02-04T15:33:18.897Z,1.10
2023-02-04T15:36:22.100Z,0.90
2023-02-04T15:39:25.075Z,1.08
2023-02-04T15:42:28.331Z,1.00
2023-02-04T15:45:31.271Z,0.62
2023-02-04T15:48:34.454Z,0.65
2023-02-04T15:51:37.146Z,0.53
2023-02-04T15:54:40.691Z,1.00
2023-02-04T15:57:43.556Z,0.70
2023-02-04T16:00:46.848Z,0.73
2023-02-04T16:03:51.383Z,0.90
2023-02-04T16:06:58.947Z,0.77
2023-02-04T16:10:02.634Z,1.65
2023-02-04T16:13:05.334Z,1.20
2023-02-04T16:16:08.718Z,2.20
2023-02-04T16:19:11.606Z,2.08
2023-02-04T16:22:14.847Z,0.97
2023-02-04T16:25:18.648Z,1.23
2023-02-04T16:28:21.751Z,1.42
2023-02-04T16:31:24.805Z,0.62
2023-02-04T16:34:29.753Z,1.92
2023-02-04T16:37:33.401Z,2.10
2023-02-04T16:40:36.957Z,1.02
2023-02-04T16:43:40.000Z,0.70
2023-02-04T16:46:43.244Z,1.60
2023-02-04T16:49:46.119Z,0.80
2023-02-04T16:52:49.679Z,0.97
2023-02-04T16:55:52.866Z,0.70
2023-02-04T16:58:56.287Z,0.95
2023-02-04T17:02:00.978Z,1.37
2023-02-04T17:05:04.653Z,1.37
2023-02-04T17:08:07.701Z,1.17
2023-02-04T17:11:29.802Z,0.70
2023-02-04T17:14:32.901Z,0.98
2023-02-04T17:17:36.134Z,0.85
2023-02-04T17:20:39.011Z,1.20
2023-02-04T17:23:42.935Z,0.77
2023-02-04T17:26:46.293Z,1.48
2023-02-04T17:29:49.719Z,0.77
2023-02-04T17:32:52.867Z,1.00
2023-02-04T17:35:56.500Z,0.70
2023-02-04T17:38:59.794Z,0.75
2023-02-04T17:42:03.424Z,1.12
2023-02-04T17:45:07.343Z,0.90
2023-02-04T17:48:10.915Z,0.82
2023-02-04T17:51:14.118Z,0.70
2023-02-04T17:54:17.465Z,0.90
2023-02-04T17:57:21.831Z,0.70
2023-02-04T18:00:29.604Z,1.20
2023-02-04T18:03:33.779Z,0.80
2023-02-04T18:06:38.113Z,1.20
2023-02-04T18:09:41.228Z,1.10
2023-02-04T18:12:45.299Z,0.68
2023-02-04T18:16:01.298Z,0.90
2023-02-04T18:19:20.431Z,1.10
2023-02-04T18:22:25.769Z,1.50
2023-02-04T18:25:30.453Z,1.10
2023-02-04T18:28:39.668Z,0.85
2023-02-04T18:31:53.440Z,0.83
2023-02-04T18:34:59.312Z,0.98
2023-02-04T18:38:02.626Z,1.10
2023-02-04T18:41:28.040Z,1.10
2023-02-04T18:44:38.250Z,1.03
2023-02-04T18:47:41.771Z,0.95
2023-02-04T18:50:46.707Z,1.60
2023-02-04T18:53:51.777Z,1.12
2023-02-04T18:57:04.578Z,1.92
2023-02-04T19:00:11.575Z,1.37
2023-02-04T19:03:29.989Z,1.10
2023-02-04T19:06:41.016Z,1.33
2023-02-04T19:09:44.201Z,1.30
2023-02-04T19:12:48.550Z,1.62
2023-02-04T19:16:25.826Z,1.05
2023-02-04T19:19:39.203Z,1.35
2023-02-04T19:22:46.756Z,1.23
2023-02-04T19:25:52.486Z,1.30
2023-02-04T19:28:55.976Z,1.35
2023-02-04T19:32:19.709Z,1.15
2023-02-04T19:35:25.418Z,0.93
2023-02-04T19:38:45.868Z,0.68
2023-02-04T19:41:51.621Z,1.35
2023-02-04T19:44:57.355Z,1.27
2023-02-04T19:48:02.270Z,1.70
2023-02-04T19:51:25.705Z,1.27
2023-02-04T19:54:38.704Z,1.20
2023-02-04T19:57:42.157Z,1.17
2023-02-04T20:00:57.570Z,0.70
2023-02-04T20:04:03.149Z,0.60
2023-02-04T20:07:18.235Z,0.37
2023-02-04T20:10:28.881Z,1.10
2023-02-04T20:13:32.653Z,1.40
2023-02-04T20:16:44.946Z,0.95
2023-02-04T20:19:49.098Z,1.20
2023-02-04T20:22:52.835Z,1.00
2023-02-04T20:25:58.121Z,1.40
2023-02-04T20:29:06.085Z,0.80
2023-02-04T20:32:29.111Z,1.08
2023-02-04T20:35:32.799Z,1.42
2023-02-04T20:38:36.344Z,1.10
2023-02-04T20:41:40.578Z,1.17
2023-02-04T20:44:43.944Z,1.20
2023-02-04T20:47:51.787Z,1.05
2023-02-04T20:50:57.464Z,1.07
2023-02-04T20:54:07.565Z,1.25
2023-02-04T20:57:21.019Z,1.37
2023-02-04T21:00:32.165Z,0.68
2023-02-04T21:03:37.870Z,0.93
2023-02-04T21:06:41.420Z,1.17
2023-02-04T21:09:45.225Z,1.20
2023-02-04T21:12:48.514Z,1.50
2023-02-04T21:15:51.861Z,1.05
2023-02-04T21:18:55.262Z,1.23
2023-02-04T21:21:59.049Z,1.40
2023-02-04T21:25:02.491Z,1.23
2023-02-04T21:28:06.444Z,1.23
2023-02-04T21:31:11.771Z,0.75
2023-02-04T21:34:16.338Z,1.27
2023-02-04T21:37:19.886Z,0.68
2023-02-04T21:40:22.765Z,1.07
2023-02-04T21:43:26.330Z,1.00
2023-02-04T21:46:29.477Z,0.70
2023-02-04T21:49:32.732Z,1.10
2023-02-04T21:52:36.163Z,0.90
2023-02-04T21:55:40.202Z,1.37
2023-02-04T21:58:43.236Z,1.35
2023-02-04T22:01:46.449Z,1.90
2023-02-04T22:04:49.678Z,1.27
2023-02-04T22:07:53.019Z,1.40
2023-02-04T22:10:56.091Z,1.67
2023-02-04T22:13:58.787Z,1.52
2023-02-04T22:17:01.922Z,1.43
2023-02-04T22:20:04.933Z,1.10
2023-02-04T22:23:07.883Z,1.37
2023-02-04T22:26:10.679Z,1.27
2023-02-04T22:29:13.698Z,1.73
2023-02-04T22:32:16.447Z,0.70
2023-02-04T22:35:19.501Z,1.10
2023-02-04T22:38:22.216Z,1.15
2023-02-04T22:41:25.232Z,0.87
2023-02-04T22:44:28.031Z,1.00
2023-02-04T22:47:31.784Z,0.65
2023-02-04T22:50:34.531Z,0.80
2023-02-04T22:53:37.620Z,1.30
2023-02-04T22:56:40.288Z,0.55
2023-02-04T22:59:43.340Z,0.88
2023-02-04T23:02:46.049Z,0.82
2023-02-04T23:05:49.178Z,0.93
2023-02-04T23:08:52.006Z,0.93
2023-02-04T23:11:56.970Z,0.73
2023-02-04T23:14:59.699Z,1.23
2023-02-04T23:18:02.681Z,0.83
2023-02-04T23:21:05.575Z,1.20
2023-02-04T23:24:08.778Z,1.20
2023-02-04T23:27:12.247Z,0.70
2023-02-04T23:30:16.497Z,0.90
2023-02-04T23:33:19.244Z,0.88
2023-02-04T23:36:22.812Z,0.90
2023-02-04T23:39:25.706Z,0.85
2023-02-04T23:42:30.934Z,1.13
2023-02-04T23:45:34.063Z,1.60
2023-02-04T23:48:37.171Z,1.40
2023-02-04T23:51:40.202Z,1.55
2023-02-04T23:54:43.313Z,1.10
2023-02-04T23:57:49.829Z,0.88
